Flight Track Log - Related Links

Times and Time Zones

All times are in EDT time to prevent confusion due to time zone crossing. See the RPA3247 flight status page for this flight to view local times or setup timezone preferences in your user account.

Time Position Orientation Groundspeed Altitude Reporting Facility
EDT Latitude Longitude Course Direction KTS MPH feet Rate Location/Type
Thu 06:12:54 PM 42.7236 -73.8050 169° South 151 174 1,700  Level Boston Center
Thu 06:13:37 PM 42.7003 -73.8328 221° Southwest 189 217 2,500 2,698 Climbing Boston Center
Thu 06:15:00 PM 42.4599 -74.0584 171° South  Level Estimated
Thu 06:15:03 PM 42.7322 -73.9411 292° West 279 321 7,500  Level Boston Center
Thu 06:16:00 PM 42.3876 -74.1221 170° South  Level Estimated
Thu 06:16:03 PM 42.7519 -74.0236 288° West 251 289 10,300  Level Boston Center
Thu 06:17:00 PM 42.3445 -74.0209 120° Southeast  Level FlightAware Approximate
Thu 06:17:03 PM 42.7547 -74.1197 272° West 244 281 12,800  Level Boston Center
Thu 06:18:00 PM 42.2732 -74.0865 169° South  Level Estimated
Thu 06:18:03 PM 42.6769 -74.1742 207° Southwest 252 290 15,000  Level Boston Center
Thu 06:19:03 PM 42.5872 -74.1689 178° South 311 358 16,700 1,750 Climbing Boston Center
Thu 06:20:03 PM 42.4947 -74.0986 151° Southeast 344 396 18,500 1,773 Climbing Boston Center
Thu 06:21:15 PM 42.3997 -74.0369 154° Southeast 358 412 20,600 1,955 Climbing Boston Center
Thu 06:22:15 PM 42.2800 -73.9525 152° Southeast 387 445 22,800 1,950 Climbing Boston Center
Thu 06:23:15 PM 42.1767 -73.8828 153° Southeast 404 465 24,500 1,550 Climbing Boston Center
Thu 06:24:15 PM 42.0939 -73.8278 154° Southeast 410 472 25,900 1,550 Climbing Boston Center
Thu 06:25:15 PM 41.9678 -73.7411 153° Southeast 421 484 27,600 1,050 Climbing Boston Center
Thu 06:26:15 PM 41.8622 -73.6667 152° Southeast 421 484 28,000 200 Climbing Boston Center
Thu 06:27:15 PM 41.7544 -73.6061 157° South 421 484 28,000  Level Boston Center
Thu 06:28:15 PM 41.6381 -73.5983 177° South 416 479 28,000  Level Boston Center
Thu 06:29:15 PM 41.5150 -73.5933 178° South 426 490 28,000  Level Boston Center
Thu 06:31:40 PM 41.2356 -73.7039 197° South 447 514 28,000  Level New York Center
Thu 06:32:41 PM 41.1531 -73.8353 230° Southwest 439 505 28,000  Level New York Center
Thu 06:33:41 PM 41.0725 -73.9664 231° Southwest 444 511 28,000  Level New York Center
Thu 06:34:42 PM 40.9964 -74.0867 230° Southwest 464 534 28,000  Level New York Center
Thu 06:35:42 PM 40.9008 -74.2247 228° Southwest 471 542 28,000  Level New York Center
Thu 06:36:41 PM 40.8156 -74.3575 230° Southwest 476 548 28,000  Level New York Center
Thu 06:37:41 PM 40.7342 -74.4900 231° Southwest 471 542 28,000  Level New York Center
Thu 06:38:41 PM 40.6550 -74.6225 232° Southwest 471 542 28,000 -50 Level New York Center
Thu 06:39:42 PM 40.5736 -74.7547 231° Southwest 465 535 27,900 -1,180 Descending New York Center
Thu 06:40:43 PM 40.4861 -74.8778 227° Southwest 465 535 25,600 -2,168 Descending New York Center
Thu 06:41:41 PM 40.4006 -74.9981 227° Southwest 460 529 23,600 -1,780 Descending New York Center
Thu 06:42:41 PM 40.3314 -75.1192 233° Southwest 447 514 22,100 -800 Descending New York Center
Thu 06:43:41 PM 40.2847 -75.2550 246° West 421 484 22,000 -50 Descending New York Center
Thu 06:44:42 PM 40.1953 -75.3606 222° Southwest 426 490 22,000  Level New York Center
Thu 06:45:40 PM 40.1036 -75.4631 221° Southwest 426 490 22,000  Level New York Center
Thu 06:46:41 PM 40.0139 -75.5708 223° Southwest 431 496 22,000  Level New York Center
Thu 06:47:41 PM 39.9381 -75.6903 230° Southwest 431 496 22,000  Level New York Center
Thu 06:48:42 PM 39.8642 -75.8067 230° Southwest 431 496 22,000 -744 Level New York Center
Thu 06:49:42 PM 39.7842 -75.9225 228° Southwest 431 496 20,500 -1,884 Descending New York Center
Thu 06:50:43 PM 39.7086 -76.0303 228° Southwest 422 486 18,200 -2,118 Descending New York Center
Thu 06:51:41 PM 39.6458 -76.1256 229° Southwest 401 461 16,300 -2,017 Descending New York Center
Thu 06:52:42 PM 39.5661 -76.2297 225° Southwest 386 444 14,200 -2,037 Descending New York Center
Thu 06:53:30 PM 39.5000 -76.3000 219° Southwest 351 404 12,600 -1,222 Descending Potomac TRACON
Thu 06:54:30 PM 39.4333 -76.3833 224° Southwest 332 382 12,000 -810 Descending Potomac TRACON
Thu 06:55:36 PM 39.3500 -76.4667 218° Southwest 341 392 10,900 -1,000 Descending Potomac TRACON
Thu 06:56:30 PM 39.2833 -76.5333 218° Southwest 331 381 10,000 -470 Descending Potomac TRACON
Thu 06:57:31 PM 39.2167 -76.6167 224° Southwest 354 407 10,000  Level Potomac TRACON
Thu 06:58:31 PM 39.1333 -76.7000 218° Southwest 356 410 10,000  Level Potomac TRACON
Thu 06:59:32 PM 39.0667 -76.8000 229° Southwest 357 411 10,000  Level Potomac TRACON
Thu 07:00:32 PM 38.9833 -76.8833 218° Southwest 357 411 10,000  Level Potomac TRACON
Thu 07:01:26 PM 38.9167 -76.9333 210° Southwest 344 396 10,000 -1,304 Level Potomac TRACON
Thu 07:02:27 PM 38.8333 -76.9500 189° South 327 376 7,500 -2,678 Descending Potomac TRACON
Thu 07:03:27 PM 38.7500 -76.9500 180° South 288 331 4,600 -1,835 Descending Potomac TRACON
Thu 07:04:28 PM 38.6833 -76.9333 169° South 235 270 3,800 -843 Descending Potomac TRACON
Thu 07:05:28 PM 38.6333 -76.9333 180° South 180 207 2,900 -650 Descending Potomac TRACON
Thu 07:06:28 PM 38.6000 -76.9500 201° Southwest 182 209 2,500 -198 Descending Potomac TRACON
Thu 07:07:29 PM 38.6000 -77.0167 270° West 166 191 2,500  Level Potomac TRACON
Thu 07:08:29 PM 38.6500 -77.0333 345° North 174 200 2,500  Level Potomac TRACON

Login

Don't have an account? Register now (free) for customized features, flight alerts, and more!